Time;durP1;ratioP1;P1;durP2;ratioP2;P2;SDS_P1;SDS_P2;PMS_P1;PMS_P2;Temp;Humidity;BMP_temperature;BMP_pressure;BME280_temperature;BME280_humidity;BME280_pressure;Samples;Min_cycle;Max_cycle;Signal;HPM_P1;HPM_P2
2021/10/04 00:02:00;;;;;;;6.67;6.53;;;12.40;99.90;;;;;;4981389;28;20471;-62
2021/10/04 00:04:28;;;;;;;6.60;6.50;;;12.40;99.90;;;;;;4974327;28;20474;-62
2021/10/04 00:06:56;;;;;;;7.43;6.97;;;12.40;99.90;;;;;;4974154;28;20474;-59
2021/10/04 00:09:23;;;;;;;7.10;6.90;;;12.40;99.90;;;;;;4977834;28;20454;-59
2021/10/04 00:11:50;;;;;;;8.47;7.73;;;12.40;99.90;;;;;;4993504;28;20475;-58
2021/10/04 00:14:18;;;;;;;8.00;7.70;;;12.40;99.90;;;;;;4993356;28;20489;-58
2021/10/04 00:16:45;;;;;;;7.60;7.40;;;12.40;99.90;;;;;;4993544;28;20489;-57
2021/10/04 00:19:11;;;;;;;7.10;6.80;;;12.40;99.90;;;;;;4990522;28;21092;-59
2021/10/04 00:21:39;;;;;;;7.77;7.13;;;12.40;99.90;;;;;;4973822;28;20513;-55
2021/10/04 00:24:06;;;;;;;6.80;6.50;;;12.30;99.90;;;;;;4973997;28;20455;-57
2021/10/04 00:26:33;;;;;;;6.93;6.73;;;12.30;99.90;;;;;;4973836;28;20459;-58
2021/10/04 00:29:00;;;;;;;7.23;7.03;;;12.30;99.90;;;;;;4973548;28;20455;-56
2021/10/04 00:31:26;;;;;;;7.20;7.00;;;12.30;99.90;;;;;;4975862;28;20468;-61
2021/10/04 00:33:53;;;;;;;9.23;6.83;;;12.20;99.90;;;;;;4992961;28;20497;-59
2021/10/04 00:36:20;;;;;;;7.20;7.00;;;12.20;99.90;;;;;;4993113;28;20458;-57
2021/10/04 00:38:48;;;;;;;6.80;6.60;;;12.10;99.90;;;;;;4992844;28;20451;-61
2021/10/04 00:41:15;;;;;;;7.13;6.93;;;12.10;99.90;;;;;;4992926;28;20475;-59
2021/10/04 00:43:42;;;;;;;6.93;6.73;;;12.10;99.90;;;;;;4986264;28;20448;-57
2021/10/04 00:46:08;;;;;;;6.73;6.53;;;12.00;99.90;;;;;;4973783;28;20487;-56
2021/10/04 00:48:35;;;;;;;7.13;6.93;;;12.00;99.90;;;;;;4973195;28;20483;-55
2021/10/04 00:51:02;;;;;;;7.10;6.80;;;11.90;99.90;;;;;;4973238;28;20486;-56
2021/10/04 00:53:29;;;;;;;6.97;6.63;;;11.90;99.90;;;;;;4991181;28;20478;-60
2021/10/04 00:55:57;;;;;;;6.77;6.43;;;11.90;99.90;;;;;;4992771;28;20454;-60
2021/10/04 00:58:24;;;;;;;6.43;6.23;;;11.90;99.90;;;;;;4992644;28;20458;-55
2021/10/04 01:00:51;;;;;;;7.80;7.50;;;11.90;99.90;;;;;;4974601;28;20476;-54
2021/10/04 01:03:17;;;;;;;7.50;7.30;;;12.00;99.90;;;;;;4973394;28;20451;-57
2021/10/04 01:05:44;;;;;;;8.57;8.17;;;12.00;99.90;;;;;;4973300;28;20455;-55
2021/10/04 01:08:11;;;;;;;7.50;7.30;;;12.00;99.90;;;;;;4972789;28;20957;-60
2021/10/04 01:10:38;;;;;;;7.80;7.60;;;12.00;99.90;;;;;;4988549;28;20475;-58
2021/10/04 01:13:06;;;;;;;8.23;7.90;;;12.10;99.90;;;;;;4992421;28;20486;-57
2021/10/04 01:15:33;;;;;;;7.57;7.37;;;12.10;99.90;;;;;;4992457;28;20458;-57
2021/10/04 01:18:00;;;;;;;7.93;7.63;;;12.10;99.90;;;;;;4990509;28;20450;-60
2021/10/04 01:20:28;;;;;;;7.60;7.40;;;12.20;99.90;;;;;;4992244;28;20467;-57
2021/10/04 01:22:56;;;;;;;7.67;7.47;;;12.20;99.90;;;;;;4976512;28;20455;-56
2021/10/04 01:25:24;;;;;;;8.37;7.83;;;12.20;99.90;;;;;;4972864;28;20930;-57
2021/10/04 01:27:53;;;;;;;8.07;7.70;;;12.30;99.90;;;;;;4972773;28;20816;-58
2021/10/04 01:30:23;;;;;;;7.80;7.60;;;12.30;99.90;;;;;;4972674;28;20518;-57
2021/10/04 01:32:54;;;;;;;7.80;7.53;;;12.30;99.90;;;;;;4972798;28;20483;-54
2021/10/04 01:35:21;;;;;;;7.60;7.40;;;12.30;99.90;;;;;;4988830;28;20442;-58
2021/10/04 01:37:49;;;;;;;8.70;8.30;;;12.30;99.90;;;;;;4992291;28;20438;-53
2021/10/04 01:40:16;;;;;;;8.20;7.87;;;12.30;99.90;;;;;;4991968;28;20454;-59
2021/10/04 01:42:44;;;;;;;8.17;7.77;;;12.30;99.90;;;;;;4992293;28;20457;-55
2021/10/04 01:45:13;;;;;;;8.57;8.07;;;12.30;99.90;;;;;;4991063;28;20458;-57
2021/10/04 01:47:41;;;;;;;8.23;7.73;;;12.20;99.90;;;;;;4972677;28;20451;-58
2021/10/04 01:50:10;;;;;;;8.57;7.97;;;12.20;99.90;;;;;;4972492;28;20455;-54
2021/10/04 01:52:38;;;;;;;8.67;8.30;;;12.20;99.90;;;;;;4972674;28;20847;-57
2021/10/04 01:55:08;;;;;;;7.93;7.60;;;12.20;99.90;;;;;;4972566;28;20443;-58
2021/10/04 01:57:34;;;;;;;7.37;7.17;;;12.20;99.90;;;;;;4977883;28;20450;-54
2021/10/04 02:00:02;;;;;;;8.00;7.70;;;12.20;99.90;;;;;;4991700;28;20461;-56
2021/10/04 02:02:29;;;;;;;8.60;8.10;;;12.20;99.90;;;;;;4991624;28;20883;-59
2021/10/04 02:04:56;;;;;;;7.80;7.60;;;12.20;99.90;;;;;;4991864;28;20454;-55
2021/10/04 02:07:23;;;;;;;7.93;7.73;;;12.20;99.90;;;;;;4992030;28;20501;-54
2021/10/04 02:09:49;;;;;;;7.97;7.67;;;12.20;99.90;;;;;;4983170;28;20454;-56
2021/10/04 02:12:18;;;;;;;8.37;7.63;;;12.20;99.90;;;;;;4972424;28;20471;-56
2021/10/04 02:14:45;;;;;;;8.53;8.23;;;12.20;99.90;;;;;;4972379;28;20993;-58
2021/10/04 02:17:12;;;;;;;8.17;7.77;;;12.20;99.90;;;;;;4972684;28;20447;-55
2021/10/04 02:19:39;;;;;;;7.30;7.10;;;12.20;99.90;;;;;;4991550;28;20447;-54
2021/10/04 02:22:06;;;;;;;8.13;7.83;;;12.20;99.90;;;;;;4994428;28;20477;-57
2021/10/04 02:24:33;;;;;;;8.20;7.90;;;12.20;99.90;;;;;;4995642;28;20820;-55
2021/10/04 02:26:59;;;;;;;7.50;7.20;;;12.20;99.90;;;;;;4995578;28;20454;-56
2021/10/04 02:29:27;;;;;;;8.13;7.83;;;12.20;99.90;;;;;;4976734;28;20532;-55
2021/10/04 02:31:54;;;;;;;8.80;8.20;;;12.20;99.90;;;;;;4976054;28;21008;-57
2021/10/04 02:34:21;;;;;;;8.47;7.90;;;12.10;99.90;;;;;;4975904;28;20537;-56
2021/10/04 02:36:47;;;;;;;7.53;7.30;;;12.10;99.90;;;;;;4976035;28;20451;-54
2021/10/04 02:39:14;;;;;;;7.50;7.30;;;12.00;99.90;;;;;;4977421;28;20447;-59
2021/10/04 02:41:41;;;;;;;8.73;8.03;;;12.00;99.90;;;;;;4995290;28;20972;-56
2021/10/04 02:44:08;;;;;;;7.63;7.33;;;12.00;99.90;;;;;;4995224;28;20447;-55
2021/10/04 02:46:36;;;;;;;8.10;7.60;;;12.00;99.90;;;;;;4995129;28;20446;-57
2021/10/04 02:49:03;;;;;;;7.33;7.03;;;12.00;99.90;;;;;;4995159;28;20873;-61
2021/10/04 02:51:29;;;;;;;7.63;7.13;;;12.00;99.90;;;;;;4989532;28;20547;-60
2021/10/04 02:53:56;;;;;;;7.97;7.67;;;12.00;99.90;;;;;;4975521;28;20579;-62
2021/10/04 02:56:23;;;;;;;7.60;7.40;;;12.00;99.90;;;;;;4975568;28;20447;-59
2021/10/04 02:58:49;;;;;;;7.70;7.40;;;12.00;99.90;;;;;;4975323;28;20455;-60
2021/10/04 03:01:16;;;;;;;7.47;7.17;;;12.00;99.90;;;;;;4975412;28;20474;-57
2021/10/04 03:03:44;;;;;;;7.47;7.37;;;12.00;99.90;;;;;;4975583;28;20862;-61
2021/10/04 03:06:11;;;;;;;7.33;7.13;;;12.00;99.90;;;;;;4975377;28;20455;-59
2021/10/04 03:08:37;;;;;;;7.67;7.37;;;12.00;99.90;;;;;;4975037;28;20454;-57
2021/10/04 03:11:04;;;;;;;7.63;7.33;;;12.00;99.90;;;;;;4975218;28;20467;-56
2021/10/04 03:13:31;;;;;;;7.23;7.03;;;12.00;99.90;;;;;;4994074;28;20852;-60
2021/10/04 03:15:58;;;;;;;7.63;7.33;;;12.00;99.90;;;;;;4994509;28;20450;-58
2021/10/04 03:18:25;;;;;;;7.40;7.10;;;12.00;99.90;;;;;;4994390;28;20505;-59
2021/10/04 03:20:53;;;;;;;7.93;7.73;;;12.00;99.90;;;;;;4983358;28;20506;-60
2021/10/04 03:23:20;;;;;;;7.20;6.90;;;12.00;99.90;;;;;;4975089;28;20451;-60
2021/10/04 03:25:47;;;;;;;7.10;6.80;;;12.00;99.90;;;;;;4975091;28;20448;-56
2021/10/04 03:28:14;;;;;;;7.10;6.80;;;12.00;99.90;;;;;;4974722;28;20451;-58
2021/10/04 03:30:40;;;;;;;7.63;7.33;;;12.00;99.90;;;;;;4983656;28;20467;-56
2021/10/04 03:33:07;;;;;;;7.00;6.80;;;12.00;99.90;;;;;;4993925;28;20443;-58
2021/10/04 03:35:34;;;;;;;7.40;7.10;;;12.10;99.90;;;;;;4994292;28;20458;-58
2021/10/04 03:38:02;;;;;;;7.00;6.70;;;12.10;99.90;;;;;;4994025;28;20454;-57
2021/10/04 03:40:29;;;;;;;6.97;6.77;;;12.10;99.90;;;;;;4994115;28;20462;-57
2021/10/04 03:42:56;;;;;;;8.13;7.50;;;12.10;99.90;;;;;;4982334;28;20456;-58
2021/10/04 03:45:22;;;;;;;7.90;7.40;;;12.10;99.90;;;;;;4974666;28;20447;-56
2021/10/04 03:47:49;;;;;;;8.03;7.83;;;12.10;99.90;;;;;;4974613;28;20456;-58
2021/10/04 03:50:17;;;;;;;8.50;8.10;;;12.20;99.90;;;;;;4974259;28;20455;-60
2021/10/04 03:52:44;;;;;;;7.57;7.37;;;12.20;99.90;;;;;;5057334;23;20516;-64
2021/10/04 03:55:13;;;;;;;8.57;8.17;;;12.20;99.90;;;;;;5033236;28;20472;-63
2021/10/04 03:57:41;;;;;;;8.10;7.60;;;12.10;99.90;;;;;;5032371;28;20456;-63
2021/10/04 04:00:11;;;;;;;8.00;7.70;;;12.10;99.90;;;;;;5013238;28;20442;-64
2021/10/04 04:02:38;;;;;;;8.60;7.90;;;12.10;99.90;;;;;;5013267;28;20525;-61
2021/10/04 04:05:06;;;;;;;8.03;7.83;;;12.10;99.90;;;;;;5013414;28;20462;-62
2021/10/04 04:07:32;;;;;;;8.63;8.23;;;12.10;99.90;;;;;;5013234;28;20822;-62
2021/10/04 04:09:59;;;;;;;8.80;8.23;;;12.10;99.90;;;;;;5032370;28;20456;-61
2021/10/04 04:12:27;;;;;;;8.90;8.50;;;12.10;99.90;;;;;;5032891;28;20460;-64
2021/10/04 04:14:54;;;;;;;8.53;8.13;;;12.10;99.90;;;;;;5032811;28;20481;-63
2021/10/04 04:17:21;;;;;;;9.23;8.83;;;12.10;99.90;;;;;;5032872;28;20448;-61
2021/10/04 04:19:47;;;;;;;8.87;8.37;;;12.10;99.90;;;;;;5032453;28;20441;-62
2021/10/04 04:22:15;;;;;;;8.53;8.23;;;12.10;99.90;;;;;;5032528;28;20472;-62
2021/10/04 04:24:42;;;;;;;9.13;8.73;;;12.10;99.90;;;;;;5032728;28;20441;-61
2021/10/04 04:27:09;;;;;;;8.80;8.50;;;12.10;99.90;;;;;;5032694;28;20491;-62
2021/10/04 04:29:38;;;;;;;8.77;8.50;;;12.10;99.90;;;;;;5017991;28;20446;-63
2021/10/04 04:32:07;;;;;;;8.40;8.00;;;12.10;99.90;;;;;;5012705;28;20466;-63
2021/10/04 04:34:33;;;;;;;8.67;8.37;;;12.10;99.90;;;;;;5012663;28;20896;-63
2021/10/04 04:37:00;;;;;;;9.20;8.90;;;12.20;99.90;;;;;;5012697;28;20461;-61
2021/10/04 04:39:27;;;;;;;8.83;8.53;;;12.10;99.90;;;;;;5024963;28;20448;-63
2021/10/04 04:41:54;;;;;;;9.67;9.03;;;12.20;99.90;;;;;;5032324;28;20526;-62
2021/10/04 04:44:21;;;;;;;8.97;8.67;;;12.20;99.90;;;;;;5031676;28;20441;-64
2021/10/04 04:46:50;;;;;;;8.70;8.50;;;12.10;99.90;;;;;;5032368;28;20859;-63
2021/10/04 04:49:17;;;;;;;8.93;8.73;;;12.20;99.90;;;;;;5031968;28;20445;-64
2021/10/04 04:51:44;;;;;;;9.23;8.80;;;12.20;99.90;;;;;;5018736;28;21017;-63
2021/10/04 04:54:11;;;;;;;8.60;8.40;;;12.20;99.90;;;;;;5012261;28;21006;-61
2021/10/04 04:56:38;;;;;;;9.30;8.83;;;12.10;99.90;;;;;;5012298;28;20813;-63
2021/10/04 04:59:05;;;;;;;8.77;8.40;;;12.20;99.90;;;;;;5012038;28;20442;-63
2021/10/04 05:01:32;;;;;;;9.23;8.87;;;12.20;99.90;;;;;;5020154;28;20473;-63
2021/10/04 05:04:00;;;;;;;9.23;8.93;;;12.10;99.90;;;;;;5031928;28;20449;-63
2021/10/04 05:06:27;;;;;;;8.90;8.43;;;12.10;99.90;;;;;;5031896;28;20448;-64
2021/10/04 05:08:53;;;;;;;9.13;8.63;;;12.00;99.90;;;;;;5031591;28;20457;-63
2021/10/04 05:11:20;;;;;;;8.77;8.27;;;12.00;99.90;;;;;;5031405;28;20841;-63
2021/10/04 05:13:47;;;;;;;8.53;8.33;;;12.10;99.90;;;;;;5031710;28;20445;-63
2021/10/04 05:16:14;;;;;;;8.47;8.27;;;12.10;99.90;;;;;;5031500;28;20524;-64
2021/10/04 05:18:41;;;;;;;8.40;8.10;;;12.10;99.90;;;;;;5031460;28;20969;-61
2021/10/04 05:21:09;;;;;;;8.80;8.30;;;12.10;99.90;;;;;;5031619;28;20465;-63
2021/10/04 05:23:36;;;;;;;9.20;8.60;;;12.10;99.90;;;;;;5031436;28;20472;-63
2021/10/04 05:26:03;;;;;;;8.90;8.60;;;12.10;99.90;;;;;;5031644;28;20448;-62
2021/10/04 05:28:30;;;;;;;9.40;8.80;;;12.10;99.90;;;;;;5031217;28;20453;-62
2021/10/04 05:30:56;;;;;;;9.73;9.43;;;12.20;99.90;;;;;;5031375;28;20461;-63
2021/10/04 05:33:23;;;;;;;9.40;9.00;;;12.20;99.90;;;;;;5031479;28;20456;-63
2021/10/04 05:35:50;;;;;;;10.50;9.63;;;12.20;99.90;;;;;;5023932;28;20482;-62
2021/10/04 05:38:19;;;;;;;9.87;9.47;;;12.20;99.90;;;;;;5011671;28;20825;-61
2021/10/04 05:40:45;;;;;;;9.80;9.50;;;12.20;99.90;;;;;;5011665;28;20449;-62
2021/10/04 05:43:12;;;;;;;9.90;9.60;;;12.20;99.90;;;;;;5011804;28;20449;-63
2021/10/04 05:45:39;;;;;;;10.73;10.23;;;12.20;99.90;;;;;;5011721;28;20884;-61
2021/10/04 05:48:06;;;;;;;10.07;9.60;;;12.20;99.90;;;;;;5022290;28;20444;-62
2021/10/04 05:50:33;;;;;;;9.17;8.77;;;12.30;99.90;;;;;;5031217;28;20969;-63
2021/10/04 05:52:59;;;;;;;10.50;9.97;;;12.30;99.90;;;;;;5031217;28;20820;-64
2021/10/04 05:55:28;;;;;;;9.23;8.93;;;12.30;99.90;;;;;;5033219;28;20481;-62
2021/10/04 05:57:54;;;;;;;10.23;9.83;;;12.40;99.90;;;;;;5034859;28;20444;-63
2021/10/04 06:00:21;;;;;;;9.67;9.37;;;12.40;99.90;;;;;;5035008;28;20464;-63
2021/10/04 06:02:48;;;;;;;9.93;9.60;;;12.40;99.90;;;;;;5035131;28;20469;-62
2021/10/04 06:05:15;;;;;;;10.40;10.00;;;12.50;99.90;;;;;;5035198;28;20441;-62
2021/10/04 06:07:42;;;;;;;10.60;10.20;;;12.50;99.90;;;;;;5035100;28;20459;-63
2021/10/04 06:10:11;;;;;;;10.20;9.80;;;12.50;99.90;;;;;;5035194;28;20441;-62
2021/10/04 06:12:40;;;;;;;10.47;10.13;;;12.60;99.90;;;;;;5034614;28;20503;-61
2021/10/04 06:15:07;;;;;;;10.33;9.93;;;12.60;99.90;;;;;;5035041;28;20496;-62
2021/10/04 06:17:34;;;;;;;10.77;10.17;;;12.60;99.90;;;;;;5035176;28;20496;-62
2021/10/04 06:20:01;;;;;;;10.30;9.70;;;12.70;99.90;;;;;;5034774;28;20933;-62
2021/10/04 06:22:27;;;;;;;10.20;9.90;;;12.70;99.90;;;;;;5034934;28;20487;-62
2021/10/04 06:24:54;;;;;;;10.77;10.43;;;12.70;99.90;;;;;;5034697;28;20818;-61
2021/10/04 06:27:21;;;;;;;11.33;10.77;;;12.80;99.90;;;;;;5034647;28;20878;-62
2021/10/04 06:29:49;;;;;;;11.30;10.90;;;12.80;99.90;;;;;;5034416;28;20448;-64
2021/10/04 06:32:16;;;;;;;11.00;10.60;;;12.80;99.90;;;;;;5034530;28;20495;-62
2021/10/04 06:34:43;;;;;;;11.07;10.67;;;12.90;99.90;;;;;;5034612;28;20953;-63
2021/10/04 06:37:10;;;;;;;11.40;10.90;;;12.90;99.90;;;;;;5034463;28;20460;-62
2021/10/04 06:39:36;;;;;;;11.43;10.90;;;13.00;99.90;;;;;;5034364;28;20448;-64
2021/10/04 06:42:03;;;;;;;11.53;11.23;;;13.00;99.90;;;;;;5034732;28;20464;-62
2021/10/04 06:44:30;;;;;;;11.17;10.87;;;13.10;99.90;;;;;;5034554;28;20934;-63
2021/10/04 06:46:58;;;;;;;12.60;12.10;;;13.10;99.90;;;;;;5034280;28;20448;-63
2021/10/04 06:49:25;;;;;;;12.03;11.63;;;13.20;99.90;;;;;;5033986;28;20868;-60
2021/10/04 06:51:52;;;;;;;11.83;11.33;;;13.30;99.90;;;;;;5034266;28;20566;-63
2021/10/04 06:54:18;;;;;;;11.87;11.27;;;13.40;99.90;;;;;;5034372;28;20449;-60
2021/10/04 06:56:45;;;;;;;11.73;11.33;;;13.40;99.90;;;;;;5034381;28;20503;-62
2021/10/04 06:59:12;;;;;;;11.90;11.50;;;13.40;99.90;;;;;;5028458;28;20812;-63
2021/10/04 07:01:38;;;;;;;12.53;12.13;;;13.50;99.90;;;;;;5014393;28;20465;-62
2021/10/04 07:04:07;;;;;;;13.10;12.60;;;13.50;99.90;;;;;;5014428;28;20446;-64
2021/10/04 07:06:34;;;;;;;13.07;12.57;;;13.70;99.90;;;;;;5013699;28;20808;-64
2021/10/04 07:09:01;;;;;;;12.80;12.10;;;13.80;99.90;;;;;;5014045;28;20453;-63
2021/10/04 07:11:27;;;;;;;13.20;12.77;;;13.90;99.90;;;;;;5020965;28;20461;-63
2021/10/04 07:13:54;;;;;;;13.27;12.67;;;14.00;99.90;;;;;;5034015;28;20930;-62
2021/10/04 07:16:21;;;;;;;13.30;12.80;;;14.20;99.90;;;;;;5033836;28;20492;-65
2021/10/04 07:18:48;;;;;;;13.60;13.00;;;14.40;99.90;;;;;;5033858;28;20445;-64
2021/10/04 07:21:16;;;;;;;14.20;13.17;;;14.60;99.90;;;;;;5033539;28;20467;-62
2021/10/04 07:23:45;;;;;;;15.17;13.93;;;14.70;99.90;;;;;;5033807;28;20448;-63
2021/10/04 07:26:13;;;;;;;14.30;13.80;;;14.80;99.90;;;;;;5033793;28;20445;-63
2021/10/04 07:28:40;;;;;;;15.10;14.30;;;14.80;99.90;;;;;;5033497;28;20891;-63
2021/10/04 07:31:07;;;;;;;14.50;13.80;;;14.80;99.90;;;;;;5033418;28;20476;-61
2021/10/04 07:33:34;;;;;;;15.60;14.90;;;14.80;99.90;;;;;;5033807;28;20445;-61
2021/10/04 07:36:02;;;;;;;14.67;14.17;;;14.80;99.90;;;;;;5033668;28;20857;-62
2021/10/04 07:38:30;;;;;;;14.47;13.97;;;14.80;99.90;;;;;;5023457;28;20951;-63
2021/10/04 07:40:58;;;;;;;15.60;14.70;;;14.90;99.90;;;;;;5013409;28;20502;-62
2021/10/04 07:43:24;;;;;;;14.83;14.30;;;14.90;99.90;;;;;;5013633;28;20450;-63
2021/10/04 07:45:51;;;;;;;15.43;14.77;;;15.00;99.90;;;;;;5013650;28;20469;-64
2021/10/04 07:48:18;;;;;;;14.70;14.20;;;15.20;99.90;;;;;;5021178;28;20453;-64
2021/10/04 07:50:45;;;;;;;15.43;14.60;;;15.30;99.90;;;;;;5033007;28;20445;-62
2021/10/04 07:53:11;;;;;;;15.27;14.67;;;15.40;99.90;;;;;;5033448;28;20833;-62
2021/10/04 07:55:40;;;;;;;15.80;15.00;;;15.50;99.90;;;;;;5032987;28;20508;-64
2021/10/04 07:58:07;;;;;;;15.53;14.93;;;15.70;99.90;;;;;;5033045;28;20448;-63
2021/10/04 08:00:34;;;;;;;16.13;15.63;;;15.80;99.90;;;;;;5022664;28;20453;-62
2021/10/04 08:03:01;;;;;;;15.60;15.10;;;15.80;99.90;;;;;;5013408;28;20784;-62
2021/10/04 08:05:28;;;;;;;15.80;15.30;;;15.70;99.90;;;;;;5013207;28;20454;-63
2021/10/04 08:07:55;;;;;;;15.30;14.80;;;15.60;99.90;;;;;;5013150;28;20961;-63
2021/10/04 08:10:22;;;;;;;15.60;15.00;;;15.60;99.90;;;;;;5020146;28;20441;-62
2021/10/04 08:12:51;;;;;;;15.47;14.90;;;15.40;99.90;;;;;;5032866;28;20465;-64
2021/10/04 08:15:18;;;;;;;15.10;14.50;;;15.40;99.90;;;;;;5032885;28;20477;-62
2021/10/04 08:17:45;;;;;;;16.47;15.67;;;15.30;99.90;;;;;;5032274;28;20785;-63
2021/10/04 08:20:12;;;;;;;16.07;15.47;;;15.30;99.90;;;;;;5032180;28;20496;-63
2021/10/04 08:22:40;;;;;;;16.40;15.70;;;15.40;99.90;;;;;;5032416;28;20469;-62
2021/10/04 08:25:09;;;;;;;15.70;15.20;;;15.50;99.90;;;;;;5032675;28;20440;-63
2021/10/04 08:27:36;;;;;;;16.70;16.00;;;15.60;99.90;;;;;;5032627;28;20441;-62
2021/10/04 08:30:05;;;;;;;16.30;15.70;;;15.80;99.90;;;;;;5032300;28;20449;-62
2021/10/04 08:32:32;;;;;;;16.87;16.17;;;15.90;99.90;;;;;;5032511;28;20476;-62
2021/10/04 08:34:58;;;;;;;16.17;15.67;;;16.10;99.90;;;;;;5032273;28;20476;-62
2021/10/04 08:37:26;;;;;;;16.43;15.90;;;16.20;99.90;;;;;;5032407;28;20460;-64
2021/10/04 08:39:53;;;;;;;16.80;16.00;;;16.20;99.90;;;;;;5032079;28;20950;-63
2021/10/04 08:42:21;;;;;;;16.30;15.63;;;16.30;99.90;;;;;;5032210;28;20465;-64
2021/10/04 08:44:48;;;;;;;16.67;16.07;;;16.40;99.90;;;;;;5032307;28;20941;-64
2021/10/04 08:47:16;;;;;;;16.77;16.27;;;16.60;99.90;;;;;;5032063;28;20461;-64
2021/10/04 08:49:43;;;;;;;17.30;16.60;;;16.70;99.90;;;;;;5032000;28;20661;-63
2021/10/04 08:52:10;;;;;;;16.50;15.90;;;16.90;99.90;;;;;;5032068;28;20473;-61
2021/10/04 08:54:37;;;;;;;16.57;16.07;;;17.00;99.90;;;;;;5031942;28;20441;-62
2021/10/04 08:57:04;;;;;;;18.00;17.17;;;17.20;99.90;;;;;;5032138;28;20846;-61
2021/10/04 08:59:32;;;;;;;17.67;16.87;;;17.30;99.90;;;;;;5031608;28;20449;-63
2021/10/04 09:02:23;;;;;;;16.93;16.33;;;17.40;99.90;;;;;;5031961;28;20572;-63
2021/10/04 09:05:10;;;;;;;17.40;16.50;;;17.60;99.90;;;;;;5032055;28;20935;-62
2021/10/04 09:07:42;;;;;;;17.60;16.70;;;17.90;99.90;;;;;;5031898;28;20460;-63
2021/10/04 09:10:11;;;;;;;17.30;16.40;;;18.10;99.90;;;;;;5031744;28;20449;-63
2021/10/04 09:12:47;;;;;;;17.53;16.63;;;18.10;99.90;;;;;;5031776;28;20571;-64
2021/10/04 09:15:26;;;;;;;17.77;16.87;;;18.30;99.90;;;;;;5031738;28;20853;-64
2021/10/04 09:17:54;;;;;;;17.53;16.83;;;18.30;99.90;;;;;;5031512;28;20445;-63
2021/10/04 09:20:22;;;;;;;18.07;17.07;;;18.30;99.90;;;;;;5031661;28;20441;-64
2021/10/04 09:22:49;;;;;;;18.23;17.23;;;18.40;99.90;;;;;;5031313;28;20841;-64
2021/10/04 09:25:16;;;;;;;17.63;17.03;;;18.50;99.90;;;;;;5031833;28;20491;-61
2021/10/04 09:27:45;;;;;;;18.20;17.50;;;18.40;99.90;;;;;;5031527;28;20445;-64
2021/10/04 09:30:15;;;;;;;17.40;16.10;;;18.40;99.90;;;;;;5030975;28;20448;-62
2021/10/04 09:32:44;;;;;;;17.43;16.83;;;18.60;99.90;;;;;;5011792;28;20465;-60
2021/10/04 09:35:18;;;;;;;17.50;16.80;;;18.70;99.90;;;;;;5011844;28;20474;-63
2021/10/04 09:37:48;;;;;;;18.37;17.57;;;18.80;99.90;;;;;;5011674;28;20445;-64
2021/10/04 09:40:28;;;;;;;18.50;17.80;;;18.90;99.90;;;;;;5012251;28;20529;-63
2021/10/04 09:42:55;;;;;;;17.97;17.37;;;19.20;99.90;;;;;;5031354;28;20460;-63
2021/10/04 09:45:22;;;;;;;19.13;17.83;;;19.30;99.90;;;;;;5031496;28;20441;-63
2021/10/04 09:47:49;;;;;;;18.90;17.90;;;19.40;99.90;;;;;;5031031;28;20524;-59
2021/10/04 09:50:19;;;;;;;18.40;17.70;;;19.50;99.90;;;;;;5031044;28;20460;-63
2021/10/04 09:52:47;;;;;;;20.10;18.90;;;19.60;99.90;;;;;;5032738;22;20504;-61
2021/10/04 09:55:21;;;;;;;18.20;17.60;;;19.40;99.90;;;;;;5006925;28;20446;-62
2021/10/04 09:58:00;;;;;;;19.93;19.10;;;19.50;99.90;;;;;;5011456;28;20450;-60
2021/10/04 10:00:29;;;;;;;20.87;19.80;;;19.60;99.90;;;;;;5011680;28;20446;-60
2021/10/04 10:02:56;;;;;;;19.33;18.53;;;19.50;99.90;;;;;;5028294;28;20495;-59
2021/10/04 10:05:28;;;;;;;19.10;18.30;;;19.20;99.90;;;;;;5021006;28;20508;-62
2021/10/04 10:07:56;;;;;;;19.03;18.13;;;19.10;99.90;;;;;;5011395;28;20819;-62
2021/10/04 10:10:23;;;;;;;19.60;18.80;;;19.10;99.90;;;;;;5011690;28;20446;-61
2021/10/04 10:12:50;;;;;;;19.27;18.30;;;18.90;99.90;;;;;;5011488;28;20528;-62
2021/10/04 10:15:19;;;;;;;19.67;18.40;;;18.80;99.90;;;;;;5011446;28;20951;-62
2021/10/04 10:17:48;;;;;;;21.10;19.97;;;18.90;99.90;;;;;;4998480;28;20450;-61
2021/10/04 10:20:19;;;;;;;19.37;18.50;;;19.10;99.90;;;;;;4991605;28;20963;-60
2021/10/04 10:22:49;;;;;;;19.20;18.40;;;19.40;99.90;;;;;;4991814;28;21278;-61
2021/10/04 10:25:35;;;;;;;18.87;18.07;;;19.60;99.90;;;;;;4991842;28;20474;-61
2021/10/04 10:28:03;;;;;;;19.60;18.60;;;19.70;99.90;;;;;;4991744;28;20450;-61
2021/10/04 10:30:30;;;;;;;20.20;19.50;;;20.30;99.90;;;;;;4991897;28;20451;-61
2021/10/04 10:32:58;;;;;;;19.80;19.00;;;20.60;99.90;;;;;;4991528;28;20485;-61
2021/10/04 10:35:55;;;;;;;19.67;18.87;;;20.80;99.90;;;;;;4991708;28;20541;-62
2021/10/04 10:38:59;;;;;;;20.03;19.17;;;20.80;99.90;;;;;;4963858;28;20450;-62
2021/10/04 10:41:26;;;;;;;20.43;19.23;;;20.70;99.90;;;;;;4996822;28;20827;-60
2021/10/04 10:44:13;;;;;;;19.93;19.03;;;20.70;99.90;;;;;;4994927;28;20951;-60
2021/10/04 10:46:51;;;;;;;20.23;19.23;;;20.60;99.80;;;;;;4995162;28;20442;-58
2021/10/04 10:49:55;;;;;;;20.40;19.50;;;20.70;99.90;;;;;;5008072;28;20441;-61
2021/10/04 10:52:24;;;;;;;21.77;20.23;;;20.40;99.30;;;;;;5014593;28;20484;-60
2021/10/04 10:54:53;;;;;;;21.40;20.60;;;20.50;99.00;;;;;;5014691;28;20441;-59
2021/10/04 10:57:20;;;;;;;21.57;20.73;;;20.40;99.40;;;;;;5003586;28;20561;-58
2021/10/04 11:00:02;;;;;;;22.17;20.73;;;20.40;99.30;;;;;;4994724;28;20936;-62
2021/10/04 11:02:51;;;;;;;21.10;20.40;;;20.70;99.70;;;;;;4994635;28;20470;-58
2021/10/04 11:06:09;;;;;;;21.23;20.33;;;20.90;98.70;;;;;;4994810;28;20959;-61
2021/10/04 11:08:56;;;;;;;22.07;21.27;;;20.90;98.50;;;;;;5007138;28;20448;-58
2021/10/04 11:11:25;;;;;;;22.07;21.27;;;21.80;98.00;;;;;;5034162;28;20461;-60
2021/10/04 11:14:10;;;;;;;22.40;21.50;;;22.40;96.10;;;;;;5034179;28;20943;-61
2021/10/04 11:17:06;;;;;;;22.63;21.83;;;22.90;94.00;;;;;;5014620;28;20466;-62
2021/10/04 11:19:38;;;;;;;23.17;22.27;;;23.80;91.50;;;;;;4994577;28;20933;-63
2021/10/04 11:22:07;;;;;;;22.53;21.73;;;25.30;86.60;;;;;;4994581;28;20463;-62
2021/10/04 11:24:37;;;;;;;23.70;22.70;;;26.00;75.60;;;;;;4994799;28;20454;-65
2021/10/04 11:27:06;;;;;;;24.23;23.23;;;26.40;71.40;;;;;;5007401;28;20457;-64
2021/10/04 11:29:35;;;;;;;23.00;22.10;;;27.80;63.80;;;;;;5014905;28;20966;-64
2021/10/04 11:32:16;;;;;;;23.30;22.40;;;28.00;58.50;;;;;;5015105;28;20560;-66
2021/10/04 11:34:43;;;;;;;25.07;23.93;;;29.20;57.30;;;;;;5008589;28;20960;-65
2021/10/04 11:37:10;;;;;;;24.60;23.60;;;30.00;52.50;;;;;;4996828;28;20518;-64
2021/10/04 11:39:37;;;;;;;23.97;23.00;;;30.50;50.30;;;;;;4996658;28;20936;-64
2021/10/04 11:42:08;;;;;;;24.20;23.10;;;31.40;47.60;;;;;;4996291;28;20815;-64
2021/10/04 11:44:41;;;;;;;22.80;22.00;;;30.40;46.40;;;;;;5001107;28;20986;-64
2021/10/04 11:47:10;;;;;;;23.80;22.83;;;28.80;47.80;;;;;;5015440;28;20442;-64
2021/10/04 11:49:38;;;;;;;23.40;22.60;;;27.60;48.90;;;;;;5014232;28;20450;-64
2021/10/04 11:52:07;;;;;;;23.40;22.60;;;26.20;51.80;;;;;;5013978;28;20516;-64
2021/10/04 11:54:37;;;;;;;23.97;23.00;;;27.30;52.00;;;;;;5014061;28;20441;-65
2021/10/04 11:57:07;;;;;;;23.37;22.40;;;26.60;51.90;;;;;;5007584;28;20838;-65
2021/10/04 11:59:47;;;;;;;22.97;22.07;;;25.90;53.10;;;;;;4994426;28;20447;-64
2021/10/04 12:02:18;;;;;;;22.73;21.83;;;24.80;55.50;;;;;;4994509;28;20470;-64
2021/10/04 12:04:45;;;;;;;23.20;22.23;;;26.40;54.50;;;;;;4995743;28;20474;-63
2021/10/04 12:07:11;;;;;;;23.67;22.57;;;26.00;54.10;;;;;;5013909;28;20445;-64
2021/10/04 12:09:38;;;;;;;22.30;21.43;;;26.90;53.40;;;;;;5013403;28;20468;-65
2021/10/04 12:12:06;;;;;;;22.23;21.40;;;26.20;53.40;;;;;;5013718;28;20465;-63
2021/10/04 12:14:35;;;;;;;23.00;22.00;;;25.20;53.80;;;;;;5000889;28;20474;-63
2021/10/04 12:17:05;;;;;;;22.70;21.70;;;25.10;55.70;;;;;;4994635;28;21078;-64
2021/10/04 12:19:32;;;;;;;22.53;21.63;;;25.50;56.30;;;;;;4994253;28;20443;-63
2021/10/04 12:21:59;;;;;;;22.00;21.00;;;26.40;53.70;;;;;;4994463;28;20828;-64
2021/10/04 12:24:27;;;;;;;22.60;21.50;;;25.60;49.80;;;;;;5006333;28;20450;-63
2021/10/04 12:26:58;;;;;;;21.47;20.67;;;24.70;50.70;;;;;;5014602;28;20446;-63
2021/10/04 12:29:38;;;;;;;21.50;20.70;;;24.50;51.60;;;;;;5014826;28;20851;-63
2021/10/04 12:32:21;;;;;;;21.20;20.40;;;24.60;50.20;;;;;;5015172;28;20474;-65
2021/10/04 12:34:59;;;;;;;21.30;20.50;;;25.10;49.20;;;;;;5015000;28;20789;-64
2021/10/04 12:37:27;;;;;;;22.17;21.17;;;24.40;50.70;;;;;;4996096;28;20482;-63
2021/10/04 12:39:54;;;;;;;22.10;21.20;;;24.00;52.00;;;;;;4995940;28;20454;-63
2021/10/04 12:42:21;;;;;;;21.40;20.60;;;23.40;52.30;;;;;;4995902;28;20462;-65
2021/10/04 12:44:50;;;;;;;22.20;21.30;;;23.10;53.30;;;;;;4995822;28;20970;-63